Terminal Aerodrome Forecast
Issued by NWS

Home | Current Version | Previous Version | Text Only | Print | Product List | Glossary On
Versions: 1 2 3 4 5 6 7 8 9 10 11 12 13
035
FTUS44 KTSA 090520
TAFXNA
TAF
KXNA 090520Z 0906/1006 31011KT P6SM SCT250
     FM091500 32013G21KT P6SM SKC
     FM100000 32007KT P6SM SCT250=

USA.gov is the U.S. government's official web portal to all federal, state and local government web resources and services.